createdAt,value
2019-04-07T00:00:26.757Z,69.18
2019-04-07T00:02:57.071Z,69.08
2019-04-07T00:05:29.958Z,69.02
2019-04-07T00:08:00.817Z,69.02
2019-04-07T00:10:31.541Z,69.33
2019-04-07T00:13:02.050Z,69.50
2019-04-07T00:15:33.274Z,69.63
2019-04-07T00:18:03.758Z,69.67
2019-04-07T00:20:34.396Z,69.68
2019-04-07T00:23:04.730Z,69.71
2019-04-07T00:25:35.246Z,69.66
2019-04-07T00:28:05.880Z,69.66
2019-04-07T00:30:38.451Z,69.52
2019-04-07T00:33:09.703Z,69.50
2019-04-07T00:35:41.362Z,69.48
2019-04-07T00:38:11.625Z,69.55
2019-04-07T00:40:42.816Z,69.57
2019-04-07T00:43:13.725Z,69.68
2019-04-07T00:45:46.131Z,69.75
2019-04-07T00:48:16.873Z,69.78
2019-04-07T00:50:48.789Z,69.96
2019-04-07T00:53:19.014Z,70.00
2019-04-07T00:55:50.676Z,70.47
2019-04-07T00:58:21.471Z,70.47
2019-04-07T01:00:52.137Z,70.29
2019-04-07T01:03:22.685Z,70.72
2019-04-07T01:05:53.313Z,70.72
2019-04-07T01:08:23.752Z,70.35
2019-04-07T01:10:54.076Z,70.46
2019-04-07T01:13:24.719Z,70.67
2019-04-07T01:15:58.706Z,70.66
2019-04-07T01:18:32.691Z,71.32
2019-04-07T01:21:03.722Z,71.49
2019-04-07T01:23:36.389Z,71.49
2019-04-07T01:26:07.446Z,71.01
2019-04-07T01:28:37.945Z,71.09
2019-04-07T01:31:08.796Z,71.11
2019-04-07T01:33:40.033Z,71.08
2019-04-07T01:36:11.143Z,71.07
2019-04-07T01:38:44.487Z,71.08
2019-04-07T01:41:37.115Z,71.04
2019-04-07T01:44:32.096Z,71.06
2019-04-07T01:47:23.056Z,71.12
2019-04-07T01:50:27.650Z,71.06
2019-04-07T01:53:12.565Z,71.09
2019-04-07T01:56:05.436Z,71.28
2019-04-07T01:58:50.983Z,71.33
2019-04-07T02:01:43.913Z,71.38
2019-04-07T02:04:35.932Z,71.43
2019-04-07T02:07:16.458Z,71.38
2019-04-07T02:10:05.280Z,71.51
2019-04-07T02:13:01.110Z,71.47
2019-04-07T02:15:53.740Z,71.79
2019-04-07T02:18:46.614Z,72.03
2019-04-07T02:21:46.011Z,72.47
2019-04-07T02:24:26.778Z,72.82
2019-04-07T02:27:22.022Z,72.81
2019-04-07T02:30:14.518Z,72.98
2019-04-07T02:33:06.935Z,72.85
2019-04-07T02:36:15.604Z,73.05
2019-04-07T02:39:02.818Z,73.11
2019-04-07T02:41:51.822Z,73.49
2019-04-07T02:44:45.255Z,73.93
2019-04-07T02:47:25.645Z,74.21
2019-04-07T02:50:17.926Z,74.38
2019-04-07T02:52:55.409Z,74.69
2019-04-07T02:55:38.967Z,74.99
2019-04-07T02:58:33.060Z,75.07
2019-04-07T03:01:14.359Z,75.04
2019-04-07T03:04:03.346Z,75.14
2019-04-07T03:06:53.110Z,75.24
2019-04-07T03:09:53.442Z,75.28
2019-04-07T03:12:43.437Z,75.37
2019-04-07T03:15:25.295Z,75.52
2019-04-07T03:18:14.896Z,75.74
2019-04-07T03:21:13.466Z,75.98
2019-04-07T03:23:58.610Z,76.40
2019-04-07T03:26:49.089Z,76.44
2019-04-07T03:29:36.438Z,76.67
2019-04-07T03:32:45.620Z,77.00
2019-04-07T03:35:34.969Z,77.99
2019-04-07T03:38:31.395Z,77.99
2019-04-07T03:41:19.757Z,78.33
2019-04-07T03:43:59.156Z,78.36
2019-04-07T03:46:36.438Z,78.12
2019-04-07T03:49:31.606Z,78.12
2019-04-07T03:52:29.795Z,78.46
2019-04-07T03:55:19.289Z,78.83
2019-04-07T03:58:08.030Z,79.54
2019-04-07T04:01:25.520Z,79.68
2019-04-07T04:04:21.043Z,79.90
2019-04-07T04:07:27.582Z,80.35
2019-04-07T04:10:07.074Z,80.73
2019-04-07T04:12:45.630Z,81.07
2019-04-07T04:15:26.402Z,81.31
2019-04-07T04:17:59.322Z,81.57
2019-04-07T04:20:30.256Z,81.84
2019-04-07T04:23:01.885Z,82.03
2019-04-07T04:25:32.282Z,82.28
2019-04-07T04:28:02.757Z,82.25
2019-04-07T04:30:33.975Z,82.27
2019-04-07T04:33:04.351Z,82.42
2019-04-07T04:35:34.677Z,82.63
2019-04-07T04:38:06.114Z,82.88
2019-04-07T04:40:37.535Z,83.23
2019-04-07T04:43:07.916Z,83.45
2019-04-07T04:45:38.709Z,83.68
2019-04-07T04:48:09.080Z,83.91
2019-04-07T04:50:41.863Z,84.14
2019-04-07T04:53:12.622Z,84.30
2019-04-07T04:55:45.809Z,84.50
2019-04-07T04:58:16.226Z,84.80
2019-04-07T05:00:46.795Z,85.12
2019-04-07T05:03:17.371Z,85.38
2019-04-07T05:05:48.687Z,85.41
2019-04-07T05:08:18.995Z,85.25
2019-04-07T05:10:51.009Z,84.91
2019-04-07T05:13:21.493Z,84.56
2019-04-07T05:15:51.832Z,84.16
2019-04-07T05:18:22.309Z,83.94
2019-04-07T05:20:54.265Z,83.68
2019-04-07T05:23:25.160Z,83.49
2019-04-07T05:25:55.746Z,83.41
2019-04-07T05:28:26.596Z,83.32
2019-04-07T05:30:59.076Z,83.21
2019-04-07T05:33:29.379Z,83.00
2019-04-07T05:36:01.287Z,82.72
2019-04-07T05:38:31.775Z,82.50
2019-04-07T05:41:02.061Z,82.16
2019-04-07T05:43:32.772Z,80.65
2019-04-07T05:46:05.859Z,80.65
2019-04-07T05:48:35.400Z,79.89
2019-04-07T05:51:08.781Z,77.75
2019-04-07T05:53:39.957Z,75.58
2019-04-07T05:56:11.075Z,74.72
2019-04-07T05:58:42.918Z,73.66
2019-04-07T06:01:14.070Z,73.11
2019-04-07T06:03:44.746Z,72.43
2019-04-07T06:06:15.164Z,71.98
2019-04-07T06:08:48.590Z,71.43
2019-04-07T06:11:19.571Z,71.24
2019-04-07T06:13:50.465Z,70.52
2019-04-07T06:16:22.359Z,69.70
2019-04-07T06:18:53.862Z,67.59
2019-04-07T06:21:24.331Z,66.58
2019-04-07T06:24:13.408Z,67.47
2019-04-07T06:27:03.347Z,68.35
2019-04-07T06:30:00.020Z,68.03
2019-04-07T06:32:50.551Z,66.36
2019-04-07T06:35:21.024Z,63.06
2019-04-07T06:37:52.050Z,62.74
2019-04-07T06:40:23.131Z,61.99
2019-04-07T06:42:56.768Z,60.46
2019-04-07T06:45:33.365Z,60.67
2019-04-07T06:48:08.291Z,59.01
2019-04-07T06:50:57.779Z,56.21
2019-04-07T06:53:43.048Z,53.92
2019-04-07T06:56:38.726Z,52.98
2019-04-07T06:59:21.968Z,51.76
2019-04-07T07:02:14.746Z,51.43
2019-04-07T07:05:07.309Z,52.80
2019-04-07T07:07:45.849Z,53.32
2019-04-07T07:10:39.926Z,51.92
2019-04-07T07:13:32.201Z,52.22
2019-04-07T07:16:17.344Z,47.90
2019-04-07T07:19:24.437Z,42.98
2019-04-07T07:22:16.500Z,40.40
2019-04-07T07:24:47.608Z,39.91
2019-04-07T07:27:18.442Z,35.36
2019-04-07T07:29:52.535Z,32.76
2019-04-07T07:32:21.763Z,31.37
2019-04-07T07:34:55.287Z,31.65
2019-04-07T07:37:26.927Z,31.65
2019-04-07T07:39:57.425Z,31.68
2019-04-07T07:42:28.866Z,30.45
2019-04-07T07:44:59.218Z,30.45
2019-04-07T07:47:30.528Z,29.68
2019-04-07T07:50:04.896Z,29.13
2019-04-07T07:52:34.220Z,27.68
2019-04-07T07:55:05.777Z,25.84
2019-04-07T07:57:37.074Z,25.84
2019-04-07T08:00:08.447Z,24.91
2019-04-07T08:02:40.173Z,24.32
2019-04-07T08:05:12.334Z,24.20
2019-04-07T08:07:46.831Z,24.17
2019-04-07T08:10:18.599Z,23.83
2019-04-07T08:12:49.705Z,23.40
2019-04-07T08:15:25.422Z,24.54
2019-04-07T08:17:54.582Z,25.14
2019-04-07T08:20:26.299Z,26.12
2019-04-07T08:22:56.891Z,25.37
2019-04-07T08:25:28.150Z,25.79
2019-04-07T08:28:02.148Z,24.34
2019-04-07T08:30:30.783Z,24.34
2019-04-07T08:33:02.206Z,24.09
2019-04-07T08:35:39.475Z,25.80
2019-04-07T08:38:08.776Z,25.75
2019-04-07T08:40:40.513Z,23.08
2019-04-07T08:43:11.491Z,24.63
2019-04-07T08:45:44.870Z,24.63
2019-04-07T08:48:18.236Z,24.11
2019-04-07T08:50:49.645Z,24.06
2019-04-07T08:53:20.969Z,22.59
2019-04-07T08:55:54.427Z,20.87
2019-04-07T08:58:28.435Z,20.75
2019-04-07T09:00:56.181Z,20.19
2019-04-07T09:03:27.936Z,19.44
2019-04-07T09:05:59.878Z,21.47
2019-04-07T09:08:30.724Z,21.32
2019-04-07T09:11:23.265Z,20.73
2019-04-07T09:13:54.926Z,21.28
2019-04-07T09:16:40.481Z,21.28
2019-04-07T09:19:44.305Z,20.18
2019-04-07T09:22:34.614Z,20.53
2019-04-07T09:25:18.247Z,20.51
2019-04-07T09:28:04.207Z,20.23
2019-04-07T09:31:04.298Z,19.88
2019-04-07T09:33:54.032Z,20.04
2019-04-07T09:36:44.013Z,19.38
2019-04-07T09:39:54.781Z,18.05
2019-04-07T09:42:29.628Z,17.91
2019-04-07T09:45:18.502Z,17.97
2019-04-07T09:48:11.046Z,21.15
2019-04-07T09:51:06.952Z,20.79
2019-04-07T09:53:55.449Z,19.60
2019-04-07T09:56:44.055Z,20.77
2019-04-07T09:59:39.737Z,19.44
2019-04-07T10:02:35.471Z,21.12
2019-04-07T10:05:30.877Z,18.61
2019-04-07T10:08:22.413Z,18.61
2019-04-07T10:11:17.749Z,18.25
2019-04-07T10:14:23.098Z,19.53
2019-04-07T10:17:00.369Z,19.47
2019-04-07T10:19:56.013Z,19.85
2019-04-07T10:22:32.520Z,19.22
2019-04-07T10:25:15.548Z,19.64
2019-04-07T10:28:20.427Z,18.97
2019-04-07T10:31:13.798Z,18.27
2019-04-07T10:34:13.323Z,19.47
2019-04-07T10:36:51.679Z,19.57
2019-04-07T10:39:41.494Z,20.88
2019-04-07T10:42:38.791Z,20.88
2019-04-07T10:45:31.712Z,19.83
2019-04-07T10:48:24.361Z,20.18
2019-04-07T10:51:04.466Z,20.76
2019-04-07T10:53:42.311Z,20.62
2019-04-07T10:56:29.580Z,19.69
2019-04-07T10:59:19.890Z,21.64
2019-04-07T11:02:16.867Z,21.64
2019-04-07T11:05:06.888Z,20.75
2019-04-07T11:07:57.001Z,20.76
2019-04-07T11:10:50.798Z,20.71
2019-04-07T11:13:46.985Z,21.94
2019-04-07T11:16:36.628Z,21.54
2019-04-07T11:19:27.349Z,22.30
2019-04-07T11:22:15.054Z,21.77
2019-04-07T11:25:03.628Z,25.80
2019-04-07T11:27:45.097Z,28.50
2019-04-07T11:30:37.528Z,31.15
2019-04-07T11:33:30.131Z,31.76
2019-04-07T11:36:24.396Z,31.39
2019-04-07T11:39:02.661Z,32.68
2019-04-07T11:41:48.971Z,33.18
2019-04-07T11:44:28.074Z,33.18
2019-04-07T11:47:06.816Z,32.52
2019-04-07T11:49:44.730Z,32.30
2019-04-07T11:52:20.665Z,32.36
2019-04-07T11:54:57.307Z,32.46
2019-04-07T11:58:09.728Z,32.46
2019-04-07T12:00:51.431Z,32.45
2019-04-07T12:03:41.759Z,32.56
2019-04-07T12:06:34.326Z,32.44
2019-04-07T12:09:37.100Z,33.48
2019-04-07T12:12:24.618Z,33.13
2019-04-07T12:15:30.221Z,33.06
2019-04-07T12:18:32.876Z,32.87
2019-04-07T12:21:20.463Z,32.70
2019-04-07T12:24:03.708Z,32.89
2019-04-07T12:26:56.757Z,33.38
2019-04-07T12:30:02.489Z,33.24
2019-04-07T12:32:43.348Z,32.89
2019-04-07T12:35:32.982Z,33.02
2019-04-07T12:38:20.935Z,33.02
2019-04-07T12:41:20.995Z,32.67
2019-04-07T12:44:17.099Z,32.25
2019-04-07T12:47:05.414Z,32.25
2019-04-07T12:49:53.761Z,32.40
2019-04-07T12:52:57.816Z,32.75
2019-04-07T12:56:02.459Z,32.84
2019-04-07T12:58:51.687Z,32.59
2019-04-07T13:01:47.256Z,31.64
2019-04-07T13:04:38.108Z,31.70
2019-04-07T13:07:20.720Z,31.93
2019-04-07T13:13:14.564Z,32.04
2019-04-07T13:16:06.945Z,31.97
2019-04-07T13:19:02.078Z,31.35
2019-04-07T13:21:39.386Z,31.35
2019-04-07T13:24:38.582Z,32.01
2019-04-07T13:27:29.698Z,31.89
2019-04-07T13:30:14.303Z,31.30
2019-04-07T13:32:57.508Z,31.25
2019-04-07T13:36:06.071Z,32.04
2019-04-07T13:39:06.932Z,32.28
2019-04-07T13:42:02.194Z,32.74
2019-04-07T13:44:56.110Z,32.64
2019-04-07T13:47:58.195Z,32.69
2019-04-07T13:50:47.313Z,32.48
2019-04-07T13:53:48.998Z,32.40
2019-04-07T13:56:38.552Z,32.46
2019-04-07T13:59:27.270Z,32.30
2019-04-07T14:02:16.417Z,32.84
2019-04-07T14:04:55.769Z,33.51
2019-04-07T14:07:43.937Z,33.28
2019-04-07T14:10:34.669Z,33.12
2019-04-07T14:13:28.931Z,33.10
2019-04-07T14:16:12.857Z,32.86
2019-04-07T14:18:54.447Z,33.25
2019-04-07T14:21:45.152Z,33.35
2019-04-07T14:24:47.243Z,33.47
2019-04-07T14:27:42.752Z,33.85
2019-04-07T14:30:32.332Z,34.07
2019-04-07T14:33:21.438Z,33.85
2019-04-07T14:36:21.869Z,33.81
2019-04-07T14:39:15.786Z,33.88
2019-04-07T14:42:07.293Z,33.84
2019-04-07T14:44:54.303Z,33.82
2019-04-07T14:47:34.134Z,34.05
2019-04-07T14:50:23.212Z,34.20
2019-04-07T14:53:03.268Z,34.16
2019-04-07T14:56:11.081Z,33.81
2019-04-07T14:59:11.672Z,33.98
2019-04-07T15:02:00.010Z,33.47
2019-04-07T15:04:43.062Z,33.00
2019-04-07T15:07:48.807Z,32.75
2019-04-07T15:10:37.925Z,32.58
2019-04-07T15:13:18.185Z,32.81
2019-04-07T15:15:51.078Z,32.75
2019-04-07T15:18:21.684Z,32.76
2019-04-07T15:20:54.649Z,32.77
2019-04-07T15:23:29.217Z,33.04
2019-04-07T15:25:58.949Z,33.13
2019-04-07T15:28:33.202Z,33.03
2019-04-07T15:31:04.327Z,33.45
2019-04-07T15:33:39.485Z,33.84
2019-04-07T15:36:10.759Z,33.95
2019-04-07T15:38:48.589Z,33.98
2019-04-07T15:41:19.596Z,33.85
2019-04-07T15:43:54.977Z,34.37
2019-04-07T15:46:32.452Z,34.37
2019-04-07T15:49:08.839Z,34.18
2019-04-07T15:51:39.905Z,34.21
2019-04-07T15:54:10.513Z,34.24
2019-04-07T15:56:48.058Z,34.35
2019-04-07T15:59:18.842Z,34.24
2019-04-07T16:01:49.380Z,34.30
2019-04-07T16:04:25.151Z,34.84
2019-04-07T16:06:52.673Z,34.95
2019-04-07T16:09:34.624Z,34.87
2019-04-07T16:11:58.308Z,34.76
2019-04-07T16:14:28.400Z,34.91
2019-04-07T16:17:03.899Z,35.04
2019-04-07T16:19:40.356Z,35.10
2019-04-07T16:22:06.114Z,35.33
2019-04-07T16:24:37.208Z,35.05
2019-04-07T16:27:08.795Z,35.33
2019-04-07T16:29:39.812Z,35.53
2019-04-07T16:32:11.393Z,35.36
2019-04-07T16:34:42.842Z,35.40
2019-04-07T16:37:14.238Z,35.95
2019-04-07T16:39:45.705Z,35.95
2019-04-07T16:42:16.087Z,35.97
2019-04-07T16:44:47.096Z,36.25
2019-04-07T16:47:23.218Z,35.20
2019-04-07T16:49:50.381Z,35.20
2019-04-07T16:52:20.994Z,35.56
2019-04-07T16:54:54.808Z,35.48
2019-04-07T16:57:28.186Z,35.69
2019-04-07T16:59:59.486Z,35.83
2019-04-07T17:02:30.639Z,36.05
2019-04-07T17:05:03.917Z,35.83
2019-04-07T17:07:34.964Z,35.66
2019-04-07T17:10:06.852Z,35.96
2019-04-07T17:12:40.595Z,36.22
2019-04-07T17:15:12.198Z,36.34
2019-04-07T17:17:52.465Z,36.70
2019-04-07T17:20:22.964Z,36.63
2019-04-07T17:22:56.878Z,36.38
2019-04-07T17:25:32.781Z,36.20
2019-04-07T17:28:08.156Z,36.25
2019-04-07T17:30:46.469Z,36.23
2019-04-07T17:33:20.629Z,36.32
2019-04-07T17:35:55.328Z,36.39
2019-04-07T17:38:38.618Z,36.35
2019-04-07T17:41:10.292Z,36.32
2019-04-07T17:44:16.836Z,36.40
2019-04-07T17:47:35.444Z,36.50
2019-04-07T17:50:44.610Z,36.68
2019-04-07T17:53:40.246Z,37.00
2019-04-07T17:56:45.716Z,37.31
2019-04-07T17:59:48.431Z,37.45
2019-04-07T18:02:33.859Z,37.83
2019-04-07T18:05:29.267Z,38.17
2019-04-07T18:08:37.026Z,38.39
2019-04-07T18:11:32.840Z,38.32
2019-04-07T18:14:18.145Z,38.08
2019-04-07T18:17:07.351Z,38.28
2019-04-07T18:20:15.807Z,38.37
2019-04-07T18:23:05.459Z,38.71
2019-04-07T18:25:53.915Z,38.86
2019-04-07T18:28:44.350Z,38.99
2019-04-07T18:31:38.727Z,39.08
2019-04-07T18:34:33.497Z,39.30
2019-04-07T18:37:25.212Z,39.53
2019-04-07T18:40:15.210Z,39.44
2019-04-07T18:43:12.203Z,39.52
2019-04-07T18:45:59.931Z,39.68
2019-04-07T18:48:53.248Z,39.68
2019-04-07T18:51:49.345Z,39.56
2019-04-07T18:54:56.606Z,39.52
2019-04-07T18:57:40.059Z,39.62
2019-04-07T19:00:32.467Z,39.87
2019-04-07T19:03:16.387Z,40.07
2019-04-07T19:06:02.166Z,40.20
2019-04-07T19:08:56.187Z,40.46
2019-04-07T19:11:32.807Z,40.87
2019-04-07T19:14:47.839Z,41.20
2019-04-07T19:17:23.409Z,41.46
2019-04-07T19:20:13.247Z,41.70
2019-04-07T19:23:02.605Z,41.89
2019-04-07T19:25:45.325Z,42.11
2019-04-07T19:28:35.572Z,42.31
2019-04-07T19:31:25.804Z,42.52
2019-04-07T19:34:13.111Z,42.78
2019-04-07T19:37:00.301Z,43.14
2019-04-07T19:39:59.238Z,43.45
2019-04-07T19:42:49.290Z,43.88
2019-04-07T19:45:44.392Z,44.32
2019-04-07T19:48:30.904Z,44.65
2019-04-07T19:51:12.363Z,45.09
2019-04-07T19:54:04.642Z,45.48
2019-04-07T19:56:45.786Z,45.96
2019-04-07T19:59:39.357Z,46.27
2019-04-07T20:02:30.543Z,46.70
2019-04-07T20:05:19.532Z,47.09
2019-04-07T20:08:20.817Z,47.46
2019-04-07T20:11:09.682Z,47.78
2019-04-07T20:14:12.566Z,47.89
2019-04-07T20:17:17.427Z,48.13
2019-04-07T20:20:10.945Z,48.37
2019-04-07T20:23:04.386Z,48.61
2019-04-07T20:25:52.766Z,48.75
2019-04-07T20:28:45.091Z,49.00
2019-04-07T20:31:36.451Z,49.02
2019-04-07T20:34:16.337Z,49.04
2019-04-07T20:37:00.555Z,49.24
2019-04-07T20:40:00.185Z,49.10
2019-04-07T20:42:48.506Z,49.49
2019-04-07T20:45:52.437Z,49.59
2019-04-07T20:48:41.122Z,49.75
2019-04-07T20:51:19.377Z,49.76
2019-04-07T20:53:59.794Z,50.05
2019-04-07T20:56:56.282Z,50.09
2019-04-07T21:00:03.661Z,50.28
2019-04-07T21:03:19.611Z,50.49
2019-04-07T21:05:55.930Z,50.43
2019-04-07T21:08:56.780Z,50.64
2019-04-07T21:11:54.076Z,51.05
2019-04-07T21:14:38.940Z,51.29
2019-04-07T21:17:24.540Z,51.76
2019-04-07T21:20:14.563Z,52.07
2019-04-07T21:23:04.852Z,52.15
2019-04-07T21:25:59.410Z,51.91
2019-04-07T21:28:54.879Z,51.96
2019-04-07T21:31:53.377Z,52.13
2019-04-07T21:35:00.544Z,52.53
2019-04-07T21:37:52.979Z,52.78
2019-04-07T21:40:45.881Z,52.90
2019-04-07T21:43:29.959Z,53.33
2019-04-07T21:46:26.122Z,53.51
2019-04-07T21:49:12.582Z,53.59
2019-04-07T21:52:08.381Z,53.92
2019-04-07T21:54:55.627Z,54.25
2019-04-07T21:57:46.258Z,54.41
2019-04-07T22:00:33.172Z,54.44
2019-04-07T22:03:23.964Z,54.49
2019-04-07T22:06:08.870Z,54.61
2019-04-07T22:08:45.473Z,54.79
2019-04-07T22:11:15.581Z,55.01
2019-04-07T22:13:47.063Z,55.32
2019-04-07T22:16:18.559Z,55.62
2019-04-07T22:18:51.201Z,55.88
2019-04-07T22:21:23.203Z,55.92
2019-04-07T22:23:54.318Z,55.88
2019-04-07T22:26:24.610Z,55.74
2019-04-07T22:28:56.920Z,55.91
2019-04-07T22:31:32.127Z,56.08
2019-04-07T22:34:03.644Z,56.44
2019-04-07T22:36:35.671Z,56.68
2019-04-07T22:39:07.843Z,56.65
2019-04-07T22:41:41.124Z,56.61
2019-04-07T22:44:11.318Z,56.81
2019-04-07T22:46:41.722Z,56.76
2019-04-07T22:49:12.220Z,56.79
2019-04-07T22:51:44.723Z,57.00
2019-04-07T22:54:15.123Z,57.09
2019-04-07T22:56:45.487Z,57.39
2019-04-07T22:59:15.834Z,57.76
2019-04-07T23:01:47.286Z,58.00
2019-04-07T23:04:18.236Z,58.37
2019-04-07T23:06:48.553Z,58.91
2019-04-07T23:09:18.835Z,59.34
2019-04-07T23:11:49.223Z,59.71
2019-04-07T23:14:19.890Z,59.81
2019-04-07T23:16:52.010Z,60.07
2019-04-07T23:19:22.802Z,60.45
2019-04-07T23:21:53.507Z,60.83
2019-04-07T23:24:25.529Z,61.06
2019-04-07T23:26:56.479Z,61.30
2019-04-07T23:29:26.929Z,61.64
2019-04-07T23:31:57.647Z,62.01
2019-04-07T23:34:27.992Z,62.09
2019-04-07T23:37:01.783Z,63.37
2019-04-07T23:39:30.810Z,63.37
2019-04-07T23:42:01.259Z,63.38
2019-04-07T23:44:31.782Z,63.63
2019-04-07T23:47:02.747Z,63.94
2019-04-07T23:49:35.191Z,64.00
2019-04-07T23:52:07.597Z,64.09
2019-04-07T23:54:38.589Z,64.27
2019-04-07T23:57:09.398Z,64.64
2019-04-07T23:59:40.100Z,65.13
